ADDS METAR Data INFO
IDs: Format: Raw Decoded Include TAF

Data at: 1957 UTC 15 Dec 2017

KGTU 151856Z 02010KT 10SM CLR 14/M02 A3030 RMK AO2 SLP261 T01391017
KGTU 151756Z 35007KT 10SM CLR 12/M01 A3034 RMK AO2 SLP277 T01221006 10122 20050 50000
KGTU 151656Z 34011KT 10SM CLR 11/M01 A3036 RMK AO2 SLP281 T01111006
KGTU 151556Z 33007KT 10SM CLR 08/M01 A3035 RMK AO2 SLP278 T00781011
KGTU 151456Z 32007KT 10SM CLR 06/M02 A3034 RMK AO2 SLP277 T00611017 53021
KGTU 151356Z 32005KT 10SM CLR 05/M02 A3031 RMK AO2 SLP265 T00501017
KGTU 151256Z 31007KT 10SM CLR 06/M02 A3030 RMK AO2 SLP262 T00561017
KGTU 151156Z AUTO 32007KT 10SM CLR 06/M02 A3028 RMK AO2 SLP256 T00611017 10100 20061 51006
KGTU 151056Z AUTO 33007KT 10SM CLR 07/M02 A3027 RMK AO2 SLP252 T00721017
KGTU 150956Z AUTO 34005KT 10SM FEW095 08/M01 A3028 RMK AO2 SLP253 T00781011
KGTU 150856Z AUTO 36005KT 10SM FEW110 08/M02 A3026 RMK AO2 SLP247 T00831017 53010
KGTU 150756Z AUTO 36007KT 10SM FEW120 09/M02 A3024 RMK AO2 SLP243 T00891017
KGTU 150656Z AUTO 36006KT 10SM BKN120 09/M02 A3023 RMK AO2 SLP238 T00941017
KGTU 150556Z AUTO 36006KT 10SM CLR 10/M02 A3023 RMK AO2 SLP236 T01001017 10144 20100 401720056 53026
KGTU 150456Z AUTO 01010KT 10SM CLR 11/M02 A3020 RMK AO2 SLP229 T01061017
KGTU 150356Z AUTO 01009KT 10SM CLR 11/M02 A3017 RMK AO2 SLP220 T01111017
KGTU 150256Z 36008KT 10SM CLR 12/M01 A3015 RMK AO2 SLP213 T01171011 51031
KGTU 150156Z 36010KT 10SM CLR 13/M01 A3012 RMK AO2 SLP202 T01281011
KGTU 150056Z 36008KT 10SM CLR 13/M01 A3010 RMK AO2 SLP195 T01331006
KGTU 142356Z 01009KT 10SM CLR 14/M01 A3006 RMK AO2 SLP180 T01441006 10172 20144 53018
KGTU 142256Z 01007KT 10SM CLR 16/M01 A3004 RMK AO2 SLP172 T01611011
KGTU 142156Z 36009KT 10SM CLR 17/M01 A3001 RMK AO2 SLP165 T01721006
KGTU 142056Z 01012KT 10SM CLR 17/M01 A3000 RMK AO2 SLP160 T01721006 55006
KGTU 141956Z 01011G16KT 10SM CLR 17/M01 A2999 RMK AO2 SLP157 T01671011
KGTU 141856Z 01012G18KT 10SM CLR 16/M01 A2999 RMK AO2 SLP156 T01611006
KGTU 141756Z 01010KT 10SM CLR 17/00 A3002 RMK AO2 SLP166 T01670000 10167 20061 50006
KGTU 141656Z 01009KT 10SM CLR 14/01 A3003 RMK AO2 SLP172 T01390006
KGTU 141556Z 33008KT 10SM CLR 11/01 A3003 RMK AO2 SLP170 T01110011
KGTU 141456Z 29005KT 10SM CLR 09/03 A3000 RMK AO2 SLP160 T00940028 52017
KGTU 141356Z 27004KT 10SM CLR 07/03 A2998 RMK AO2 SLP154 T00670033
KGTU 141256Z 23004KT 10SM FEW120 06/03 A2996 RMK AO2 SLP148 T00610033
KGTU 141156Z AUTO 00000KT 10SM CLR 06/03 A2995 RMK AO2 SLP144 T00610033 10089 20056 53003
KGTU 141056Z AUTO 00000KT 10SM CLR 07/03 A2993 RMK AO2 SLP137 T00670033
KGTU 140956Z AUTO 00000KT 10SM CLR 06/03 A2993 RMK AO2 SLP137 T00610033
KGTU 140856Z AUTO 00000KT 10SM CLR 07/04 A2994 RMK AO2 SLP138 T00720039 55005